Time;durP1;ratioP1;P1;durP2;ratioP2;P2;SDS_P1;SDS_P2;PMS_P1;PMS_P2;Temp;Humidity;BMP_temperature;BMP_pressure;BME280_temperature;BME280_humidity;BME280_pressure;Samples;Min_cycle;Max_cycle;Signal;HPM_P1;HPM_P2
2022/08/27 00:02:13;;;;;;;1999.90;999.90;;;17.80;99.90;;;;;;4978598;28;20030;-76
2022/08/27 00:04:40;;;;;;;1999.90;999.90;;;17.70;99.90;;;;;;4939600;28;20066;-76
2022/08/27 00:07:06;;;;;;;1999.90;999.90;;;17.80;99.90;;;;;;4961656;28;20122;-76
2022/08/27 00:09:32;;;;;;;1999.90;999.90;;;17.80;99.90;;;;;;4970538;28;20183;-76
2022/08/27 00:11:58;;;;;;;1999.90;999.90;;;17.80;99.90;;;;;;4974791;28;20034;-76
2022/08/27 00:14:26;;;;;;;1999.90;999.90;;;17.80;99.90;;;;;;4966581;28;20097;-76
2022/08/27 00:16:51;;;;;;;1999.90;999.90;;;17.80;99.90;;;;;;4981070;28;20034;-76
2022/08/27 00:19:19;;;;;;;1999.90;999.90;;;17.90;99.90;;;;;;4957503;28;20383;-76
2022/08/27 00:21:44;;;;;;;1999.90;999.90;;;17.90;99.90;;;;;;4979153;28;20039;-76
2022/08/27 00:24:11;;;;;;;1999.90;999.90;;;18.00;99.90;;;;;;4977037;28;20034;-76
2022/08/27 00:26:37;;;;;;;1999.90;999.90;;;17.80;99.90;;;;;;4973980;28;20041;-76
2022/08/27 00:29:03;;;;;;;1999.90;999.90;;;17.80;99.90;;;;;;4980406;28;20877;-76
2022/08/27 00:31:29;;;;;;;1999.90;999.90;;;17.80;99.90;;;;;;4981090;28;20038;-76
2022/08/27 00:33:55;;;;;;;1999.90;999.90;;;17.80;99.90;;;;;;4974955;28;20093;-76
2022/08/27 00:36:21;;;;;;;1999.90;999.90;;;17.80;99.90;;;;;;4961479;28;20094;-76
2022/08/27 00:38:48;;;;;;;1999.90;999.90;;;17.80;99.90;;;;;;4980770;28;20043;-76
2022/08/27 00:41:14;;;;;;;1859.25;772.67;;;17.80;99.90;;;;;;4957518;28;20054;-76
2022/08/27 00:44:00;;;;;;;1999.90;999.90;;;17.70;99.90;;;;;;4978841;28;20034;-76
2022/08/27 00:46:48;;;;;;;1999.90;999.90;;;17.70;99.90;;;;;;4979242;28;20026;-76
2022/08/27 00:49:38;;;;;;;1999.90;999.90;;;17.70;99.90;;;;;;4972544;28;20081;-77
2022/08/27 00:52:07;;;;;;;;;;;17.70;99.90;;;;;;4977373;28;20156;-77
2022/08/27 00:54:33;;;;;;;1960.05;941.88;;;17.70;99.90;;;;;;4978179;28;19910;-76
2022/08/27 00:56:59;;;;;;;1999.90;999.90;;;17.70;99.90;;;;;;4971301;28;20066;-76
2022/08/27 00:59:31;;;;;;;1999.90;999.90;;;17.70;99.90;;;;;;4969053;28;20109;-76
2022/08/27 01:04:45;;;;;;;1999.90;999.90;;;17.80;99.90;;;;;;4972405;28;20042;-76
2022/08/27 01:07:11;;;;;;;1999.90;999.90;;;17.80;99.90;;;;;;4979816;28;20022;-76
2022/08/27 01:09:37;;;;;;;1999.90;999.90;;;17.80;99.90;;;;;;4961548;28;20023;-76
2022/08/27 01:12:03;;;;;;;1999.90;999.90;;;17.70;99.90;;;;;;4975787;28;20134;-76
2022/08/27 01:14:29;;;;;;;1999.90;999.90;;;17.70;99.90;;;;;;4979885;28;20513;-76
2022/08/27 01:16:57;;;;;;;1999.90;999.90;;;17.70;99.90;;;;;;4961665;28;20097;-76
2022/08/27 01:19:49;;;;;;;1999.90;999.90;;;17.70;99.90;;;;;;4977034;28;20514;-76
2022/08/27 01:22:52;;;;;;;1999.90;999.90;;;17.80;99.90;;;;;;4981026;28;20046;-76
2022/08/27 01:25:20;;;;;;;1999.90;999.90;;;17.70;99.90;;;;;;4973383;28;20023;-76
2022/08/27 01:27:46;;;;;;;1999.90;999.90;;;17.70;99.90;;;;;;4970931;28;20433;-76
2022/08/27 01:30:17;;;;;;;1999.90;999.90;;;17.60;99.90;;;;;;4983354;28;20506;-77
2022/08/27 01:32:46;;;;;;;1999.90;999.90;;;17.50;99.90;;;;;;4973916;28;20086;-76
2022/08/27 01:35:14;;;;;;;1999.90;999.90;;;17.60;99.90;;;;;;4973918;28;20035;-76
2022/08/27 01:37:42;;;;;;;1999.90;999.90;;;17.50;99.90;;;;;;4979563;28;20031;-76
2022/08/27 01:40:09;;;;;;;1999.90;999.90;;;17.50;99.90;;;;;;4960408;28;20561;-76
2022/08/27 01:42:38;;;;;;;1999.90;999.90;;;17.40;99.90;;;;;;4975759;28;20034;-76
2022/08/27 01:45:20;;;;;;;1999.90;999.90;;;17.30;99.90;;;;;;4981804;28;20099;-77
2022/08/27 01:47:46;;;;;;;1999.90;999.90;;;17.30;99.90;;;;;;4956769;28;20114;-76
2022/08/27 01:50:17;;;;;;;1999.90;999.90;;;17.30;99.90;;;;;;4960886;28;20039;-76
2022/08/27 01:52:43;;;;;;;1999.90;999.90;;;17.20;99.90;;;;;;4981344;28;20034;-76
2022/08/27 01:55:11;;;;;;;1999.90;999.90;;;17.10;99.90;;;;;;4958614;28;20082;-76
2022/08/27 01:57:38;;;;;;;1999.90;999.90;;;17.20;99.90;;;;;;4978975;28;20046;-76
2022/08/27 02:00:08;;;;;;;1999.90;999.90;;;17.10;99.90;;;;;;4989214;28;20037;-76
2022/08/27 02:02:34;;;;;;;1999.90;999.90;;;17.10;99.90;;;;;;4988669;28;20038;-76
2022/08/27 02:05:00;;;;;;;1999.90;999.90;;;17.10;99.90;;;;;;4988855;28;20461;-76
2022/08/27 02:07:26;;;;;;;1999.90;999.90;;;17.00;99.90;;;;;;4988932;28;20026;-76
2022/08/27 02:09:51;;;;;;;1999.90;999.90;;;17.00;99.90;;;;;;4971233;28;20084;-76
2022/08/27 02:12:17;;;;;;;1999.90;999.90;;;17.00;99.90;;;;;;4953923;28;20039;-76
2022/08/27 02:14:43;;;;;;;1999.90;999.90;;;17.00;99.90;;;;;;4987361;28;20117;-77
2022/08/27 02:17:08;;;;;;;1999.90;999.90;;;16.90;99.90;;;;;;4988922;28;20123;-76
2022/08/27 02:19:34;;;;;;;1999.90;999.90;;;16.90;99.90;;;;;;4987400;28;20026;-76
2022/08/27 02:22:00;;;;;;;1999.90;999.90;;;16.90;99.90;;;;;;4989006;28;20034;-76
2022/08/27 02:24:27;;;;;;;1999.90;999.90;;;16.90;99.90;;;;;;4971270;28;20515;-76
2022/08/27 02:26:54;;;;;;;1999.90;999.90;;;16.90;99.90;;;;;;4971234;28;20038;-76
2022/08/27 02:29:20;;;;;;;1999.90;999.90;;;16.80;99.90;;;;;;4971194;28;20043;-76
2022/08/27 02:31:46;;;;;;;1999.90;999.90;;;16.80;99.90;;;;;;4988173;28;20038;-76
2022/08/27 02:34:11;;;;;;;1999.90;999.90;;;16.80;99.90;;;;;;4971383;28;20402;-76
2022/08/27 02:36:37;;;;;;;1999.90;999.90;;;16.90;99.90;;;;;;4992158;28;20038;-76
2022/08/27 02:39:06;;;;;;;1999.90;999.90;;;16.80;99.90;;;;;;4991065;28;20441;-76
2022/08/27 02:41:32;;;;;;;1999.90;999.90;;;16.80;99.90;;;;;;4991466;28;20103;-76
2022/08/27 02:43:57;;;;;;;1999.90;999.90;;;16.80;99.90;;;;;;4992080;28;20126;-76
2022/08/27 02:46:23;;;;;;;1999.90;999.90;;;16.80;99.90;;;;;;4954377;28;20040;-76
2022/08/27 02:48:49;;;;;;;1999.90;999.90;;;16.80;99.90;;;;;;4992148;28;20809;-76
2022/08/27 02:51:14;;;;;;;1999.90;999.90;;;16.80;99.90;;;;;;4992072;28;20030;-76
2022/08/27 02:53:42;;;;;;;1999.90;999.90;;;16.80;99.90;;;;;;4992196;28;20027;-76
2022/08/27 02:56:09;;;;;;;1999.90;999.90;;;16.90;99.90;;;;;;4974869;28;20437;-76
2022/08/27 02:58:35;;;;;;;1999.90;999.90;;;16.90;99.90;;;;;;4974437;28;20157;-76
2022/08/27 03:01:01;;;;;;;1999.90;999.90;;;16.90;99.90;;;;;;4991604;28;20125;-76
2022/08/27 03:03:28;;;;;;;1999.90;999.90;;;16.80;99.90;;;;;;4992013;28;20032;-76
2022/08/27 03:05:55;;;;;;;1999.90;999.90;;;16.80;99.90;;;;;;4991046;28;20029;-76
2022/08/27 03:08:20;;;;;;;1999.90;999.90;;;16.80;99.90;;;;;;4991954;28;20668;-76
2022/08/27 03:10:46;;;;;;;1999.90;999.90;;;16.80;99.90;;;;;;4991911;28;20031;-76
2022/08/27 03:13:12;;;;;;;1999.90;999.90;;;16.70;99.90;;;;;;4958546;28;20064;-76
2022/08/27 03:15:37;;;;;;;1999.90;999.90;;;16.70;99.90;;;;;;4973584;28;20113;-76
2022/08/27 03:18:18;;;;;;;1999.90;999.90;;;16.70;99.90;;;;;;4974416;28;20053;-76
2022/08/27 03:20:53;;;;;;;1999.90;999.90;;;16.70;99.90;;;;;;4989245;28;20042;-76
2022/08/27 03:23:23;;;;;;;1999.90;999.90;;;16.60;99.90;;;;;;4990363;28;20027;-76
2022/08/27 03:25:55;;;;;;;1999.90;999.90;;;16.60;99.90;;;;;;4968621;28;20031;-76
2022/08/27 03:28:24;;;;;;;1999.90;999.90;;;16.60;99.90;;;;;;4990603;28;20046;-76
2022/08/27 03:30:58;;;;;;;1999.90;999.90;;;16.50;99.90;;;;;;4990629;28;20041;-76
2022/08/27 03:33:25;;;;;;;1999.90;999.90;;;16.60;99.90;;;;;;4973816;28;20057;-76
2022/08/27 03:35:51;;;;;;;1999.90;999.90;;;16.50;99.90;;;;;;4973054;28;20081;-76
2022/08/27 03:38:16;;;;;;;1999.90;999.90;;;16.60;99.90;;;;;;4991305;28;20030;-76
2022/08/27 03:40:42;;;;;;;1999.90;999.90;;;16.60;99.90;;;;;;4973829;28;20152;-76
2022/08/27 03:43:11;;;;;;;1999.90;999.90;;;16.50;99.90;;;;;;4973287;28;20037;-76
2022/08/27 03:45:36;;;;;;;1999.90;999.90;;;16.50;99.90;;;;;;4990617;28;20034;-76
2022/08/27 03:48:04;;;;;;;1999.90;999.90;;;16.50;99.90;;;;;;4973969;28;20041;-76
2022/08/27 03:50:31;;;;;;;1999.90;999.90;;;16.50;99.90;;;;;;4990882;28;20034;-76
2022/08/27 03:52:57;;;;;;;1999.90;999.90;;;16.50;99.90;;;;;;4991175;28;20034;-77
2022/08/27 03:55:23;;;;;;;1999.90;999.90;;;16.50;99.90;;;;;;4987768;28;20052;-76
2022/08/27 03:57:49;;;;;;;1999.90;999.90;;;16.50;99.90;;;;;;4988918;28;20038;-76
2022/08/27 04:00:14;;;;;;;1999.90;999.90;;;16.50;99.90;;;;;;4988403;28;20038;-76
2022/08/27 04:02:42;;;;;;;1999.90;999.90;;;16.50;99.90;;;;;;4990596;28;20049;-76
2022/08/27 04:05:11;;;;;;;1999.90;999.90;;;16.40;99.90;;;;;;4985869;28;20113;-76
2022/08/27 04:07:38;;;;;;;1999.90;999.90;;;16.40;99.90;;;;;;4990795;28;20025;-76
2022/08/27 04:10:06;;;;;;;1999.90;999.90;;;16.40;99.90;;;;;;4990744;28;20030;-76
2022/08/27 04:12:32;;;;;;;1999.90;999.90;;;16.40;99.90;;;;;;4988988;28;20030;-76
2022/08/27 04:14:58;;;;;;;1999.90;999.90;;;16.40;99.90;;;;;;4972577;28;20725;-76
2022/08/27 04:17:23;;;;;;;1999.90;999.90;;;16.50;99.90;;;;;;4971738;28;20046;-76
2022/08/27 04:19:51;;;;;;;1999.90;999.90;;;16.40;99.90;;;;;;4990272;28;20046;-76
2022/08/27 04:22:18;;;;;;;1999.90;999.90;;;16.40;99.90;;;;;;4973080;28;20117;-76
2022/08/27 04:24:43;;;;;;;1999.90;999.90;;;16.40;99.90;;;;;;4990388;28;20026;-76
2022/08/27 04:27:10;;;;;;;1999.90;999.90;;;16.50;99.90;;;;;;4972875;28;20505;-76
2022/08/27 04:29:36;;;;;;;1999.90;999.90;;;16.40;99.90;;;;;;4972847;28;20671;-76
2022/08/27 04:32:02;;;;;;;1999.90;999.90;;;16.50;99.90;;;;;;4987342;28;20044;-76
2022/08/27 04:34:29;;;;;;;1999.90;999.90;;;16.50;99.90;;;;;;4990554;28;20030;-76
2022/08/27 04:36:56;;;;;;;1999.90;999.90;;;16.50;99.90;;;;;;4989329;28;20731;-76
2022/08/27 04:39:22;;;;;;;1999.90;999.90;;;16.40;99.90;;;;;;4990219;28;20077;-76
2022/08/27 04:41:49;;;;;;;1999.90;999.90;;;16.50;99.90;;;;;;4972311;28;20077;-76
2022/08/27 04:44:15;;;;;;;1999.90;999.90;;;16.40;99.90;;;;;;4989382;28;20023;-76
2022/08/27 04:46:40;;;;;;;1999.90;999.90;;;16.50;99.90;;;;;;4989109;28;20080;-76
2022/08/27 04:49:09;;;;;;;1999.90;999.90;;;16.50;99.90;;;;;;4990367;28;20045;-76
2022/08/27 04:51:35;;;;;;;1999.90;999.90;;;16.50;99.90;;;;;;4987781;28;20022;-76
2022/08/27 04:54:02;;;;;;;1999.90;999.90;;;16.50;99.90;;;;;;4990527;28;20028;-76
2022/08/27 04:56:28;;;;;;;1999.90;999.90;;;16.50;99.90;;;;;;4990295;28;20084;-76
2022/08/27 04:58:54;;;;;;;1999.90;999.90;;;16.50;99.90;;;;;;4989634;28;20072;-76
2022/08/27 05:01:26;;;;;;;1999.90;999.90;;;16.60;99.90;;;;;;4972357;28;20494;-76
2022/08/27 05:03:53;;;;;;;1999.90;999.90;;;16.60;99.90;;;;;;4990282;28;20026;-75
2022/08/27 05:06:21;;;;;;;1999.90;999.90;;;16.60;99.90;;;;;;4988420;28;20032;-76
2022/08/27 05:08:47;;;;;;;1999.90;999.90;;;16.60;99.90;;;;;;4987737;28;20121;-76
2022/08/27 05:11:15;;;;;;;1999.90;999.90;;;16.60;99.90;;;;;;4972327;28;20030;-76
2022/08/27 05:13:42;;;;;;;1999.90;999.90;;;16.60;99.90;;;;;;4989855;28;20436;-76
2022/08/27 05:16:10;;;;;;;1999.90;999.90;;;16.70;99.90;;;;;;4985486;28;20034;-76
2022/08/27 05:18:38;;;;;;;1999.90;999.90;;;16.70;99.90;;;;;;4989011;28;20145;-76
2022/08/27 05:21:05;;;;;;;1999.90;999.90;;;16.80;99.90;;;;;;4989417;28;20098;-76
2022/08/27 05:23:31;;;;;;;1999.90;999.90;;;16.80;99.90;;;;;;4985963;28;20031;-75
2022/08/27 05:25:57;;;;;;;1999.90;999.90;;;16.80;99.90;;;;;;4988326;28;20105;-76
2022/08/27 05:28:26;;;;;;;1999.90;999.90;;;16.90;99.90;;;;;;4989292;28;20721;-76
2022/08/27 05:30:54;;;;;;;1999.90;999.90;;;16.90;99.90;;;;;;4984888;28;20038;-76
2022/08/27 05:33:23;;;;;;;1999.90;999.90;;;16.80;99.90;;;;;;4989232;28;20037;-77
2022/08/27 05:35:58;;;;;;;1999.90;999.90;;;16.90;99.90;;;;;;4988129;28;20472;-76
2022/08/27 05:38:26;;;;;;;1999.90;999.90;;;17.00;99.90;;;;;;4986881;28;20486;-76
2022/08/27 05:41:24;;;;;;;1999.90;999.90;;;17.00;99.90;;;;;;4989117;28;20117;-76
2022/08/27 05:43:51;;;;;;;1999.90;999.90;;;17.00;99.90;;;;;;4957101;28;20039;-76
2022/08/27 05:46:19;;;;;;;1999.90;999.90;;;16.90;99.90;;;;;;4971848;28;20038;-76
2022/08/27 05:48:45;;;;;;;1999.90;999.90;;;16.90;99.90;;;;;;4971773;28;20181;-76
2022/08/27 05:51:23;;;;;;;1999.90;999.90;;;17.00;99.90;;;;;;4989353;28;20493;-76
2022/08/27 05:53:49;;;;;;;1999.90;999.90;;;17.00;99.90;;;;;;4971994;28;20034;-77
2022/08/27 05:56:19;;;;;;;1999.90;999.90;;;16.90;99.90;;;;;;4966652;28;20162;-75
2022/08/27 06:01:31;;;;;;;1999.90;999.90;;;17.10;99.90;;;;;;4974457;28;20042;-79
2022/08/27 06:03:57;;;;;;;1999.90;999.90;;;17.20;99.90;;;;;;4971685;28;20072;-79
2022/08/27 06:06:23;;;;;;;1999.90;999.90;;;17.20;99.90;;;;;;4971581;28;20038;-79
2022/08/27 06:08:50;;;;;;;1999.90;999.90;;;17.20;99.90;;;;;;4988514;28;20031;-79
2022/08/27 06:11:18;;;;;;;1999.90;999.90;;;17.30;99.90;;;;;;4973383;28;20031;-78
2022/08/27 06:13:44;;;;;;;1999.90;999.90;;;17.30;99.90;;;;;;4963117;28;20038;-78
2022/08/27 06:16:13;;;;;;;1999.90;999.90;;;17.40;99.90;;;;;;4991624;28;20061;-79
2022/08/27 06:18:39;;;;;;;1999.90;999.90;;;17.20;99.90;;;;;;4982714;28;20034;-78
2022/08/27 06:21:06;;;;;;;1999.90;999.90;;;17.40;99.90;;;;;;4988484;28;20398;-79
2022/08/27 06:23:32;;;;;;;1999.90;999.90;;;17.50;99.90;;;;;;4992710;28;20429;-78
2022/08/27 06:25:59;;;;;;;1999.90;999.90;;;17.60;99.90;;;;;;4974466;28;20084;-78
2022/08/27 06:28:30;;;;;;;1999.90;999.90;;;17.60;99.90;;;;;;4969344;28;20124;-79
2022/08/27 06:31:05;;;;;;;1999.90;999.90;;;17.80;99.90;;;;;;4989069;28;20045;-78
2022/08/27 06:33:32;;;;;;;1999.90;999.90;;;17.90;99.90;;;;;;4992604;28;20033;-78
2022/08/27 06:36:03;;;;;;;1999.90;999.90;;;18.00;99.90;;;;;;4991160;28;20256;-78
2022/08/27 06:38:29;;;;;;;1999.90;999.90;;;18.00;99.90;;;;;;4974037;28;20038;-78
2022/08/27 06:40:55;;;;;;;1999.90;999.90;;;18.10;99.90;;;;;;4974557;28;20027;-77
2022/08/27 06:43:22;;;;;;;1999.90;999.90;;;18.10;99.90;;;;;;4974398;28;20041;-78
2022/08/27 06:45:48;;;;;;;1999.90;999.90;;;18.30;99.90;;;;;;4974500;28;20395;-78
2022/08/27 06:48:13;;;;;;;1999.90;999.90;;;18.30;99.90;;;;;;4974653;28;20537;-78
2022/08/27 06:50:41;;;;;;;1999.90;999.90;;;18.40;99.90;;;;;;4992471;28;20113;-78
2022/08/27 06:53:07;;;;;;;1999.90;999.90;;;18.30;99.90;;;;;;4992424;28;20034;-78
2022/08/27 06:55:46;;;;;;;1997.38;999.90;;;18.40;99.90;;;;;;4974507;28;20026;-79
2022/08/27 06:58:12;;;;;;;1999.90;999.90;;;18.50;99.90;;;;;;4981549;28;20049;-76
2022/08/27 07:00:39;;;;;;;1999.90;999.90;;;18.40;99.90;;;;;;4991854;28;20049;-77
2022/08/27 07:03:05;;;;;;;1999.90;999.90;;;18.60;99.90;;;;;;4991182;28;20114;-77
2022/08/27 07:05:36;;;;;;;1999.90;989.53;;;18.90;99.90;;;;;;4990857;28;20026;-77
2022/08/27 07:08:02;;;;;;;1995.55;940.17;;;18.80;99.90;;;;;;4977465;28;20087;-77
2022/08/27 07:10:29;;;;;;;1658.75;999.90;;;18.90;99.90;;;;;;4981993;28;20038;-77
2022/08/27 07:12:55;;;;;;;1637.22;999.90;;;19.10;99.90;;;;;;4973808;28;20100;-78
2022/08/27 07:15:21;;;;;;;1361.88;988.33;;;19.10;99.90;;;;;;4986468;28;20038;-77
2022/08/27 07:17:47;;;;;;;1492.43;999.90;;;19.30;99.90;;;;;;4983758;28;20038;-79
2022/08/27 07:20:14;;;;;;;1467.53;962.13;;;19.30;99.90;;;;;;4969689;28;20081;-74
2022/08/27 07:22:41;;;;;;;1205.63;981.05;;;19.20;99.90;;;;;;4972532;28;20026;-74
2022/08/27 07:25:09;;;;;;;1646.10;999.90;;;19.40;99.90;;;;;;4990441;28;20031;-74
2022/08/27 07:27:35;;;;;;;1096.38;958.25;;;19.20;99.90;;;;;;4973219;28;20054;-74
2022/08/27 07:30:02;;;;;;;1034.18;926.58;;;19.40;99.90;;;;;;4990615;28;20125;-74
2022/08/27 07:32:28;;;;;;;1002.05;897.95;;;19.60;99.90;;;;;;4988836;28;20085;-74
2022/08/27 07:34:53;;;;;;;974.42;875.78;;;19.60;99.90;;;;;;4990261;28;20066;-74
2022/08/27 07:37:20;;;;;;;860.03;788.38;;;19.60;99.90;;;;;;4991160;28;20045;-74
2022/08/27 07:39:46;;;;;;;928.28;838.90;;;19.80;99.90;;;;;;4973929;28;20025;-74
2022/08/27 07:44:56;;;;;;;835.08;773.85;;;19.70;99.90;;;;;;4991753;28;20578;-75
2022/08/27 07:47:22;;;;;;;823.15;759.72;;;20.00;99.90;;;;;;4989993;28;20027;-74
2022/08/27 07:49:48;;;;;;;813.05;752.35;;;20.10;99.90;;;;;;4972218;28;20490;-74
2022/08/27 07:52:14;;;;;;;832.22;771.75;;;20.30;99.90;;;;;;4973613;28;20065;-74
2022/08/27 07:54:41;;;;;;;648.15;608.70;;;20.40;99.90;;;;;;4991082;28;20473;-74
2022/08/27 07:57:07;;;;;;;660.58;620.78;;;20.50;99.90;;;;;;4982599;28;20514;-74
2022/08/27 07:59:33;;;;;;;693.03;650.28;;;20.50;99.90;;;;;;4971599;28;20126;-75
2022/08/27 08:01:59;;;;;;;703.58;659.40;;;20.80;99.90;;;;;;4986003;28;20058;-77
2022/08/27 08:04:26;;;;;;;999.55;907.63;;;20.90;99.90;;;;;;4983705;28;20086;-78
2022/08/27 08:06:52;;;;;;;915.65;836.90;;;20.60;99.90;;;;;;4987805;28;20023;-77
2022/08/27 08:09:20;;;;;;;423.90;401.13;;;20.80;99.90;;;;;;4986985;28;20038;-77
2022/08/27 08:11:46;;;;;;;611.65;575.60;;;21.20;99.90;;;;;;4986470;28;20030;-75
2022/08/27 08:14:12;;;;;;;443.80;419.27;;;21.30;99.90;;;;;;4985748;28;20073;-77
2022/08/27 08:16:38;;;;;;;403.17;381.45;;;21.40;99.90;;;;;;4983014;28;20043;-92
2022/08/27 08:19:04;;;;;;;460.45;435.27;;;21.30;99.90;;;;;;4991176;28;20161;-77
2022/08/27 08:21:30;;;;;;;836.55;766.28;;;21.10;99.90;;;;;;4988291;28;20121;-77
2022/08/27 08:23:56;;;;;;;795.92;739.25;;;20.90;99.90;;;;;;4990297;28;20031;-76
